Time;durP1;ratioP1;P1;durP2;ratioP2;P2;SDS_P1;SDS_P2;PMS_P1;PMS_P2;Temp;Humidity;BMP_temperature;BMP_pressure;BME280_temperature;BME280_humidity;BME280_pressure;Samples;Min_cycle;Max_cycle;Signal;HPM_P1;HPM_P2
2022/07/11 00:02:11;;;;;;;11.45;2.90;;;16.30;99.90;;;;;;5032866;28;20081;-77
2022/07/11 00:04:38;;;;;;;12.55;2.95;;;16.30;99.90;;;;;;5032430;28;20124;-76
2022/07/11 00:07:05;;;;;;;12.13;3.28;;;16.20;99.90;;;;;;5032337;28;20045;-77
2022/07/11 00:09:31;;;;;;;8.00;2.53;;;16.30;99.90;;;;;;5014860;28;20128;-76
2022/07/11 00:11:58;;;;;;;7.78;2.55;;;16.30;99.90;;;;;;5034353;28;20054;-75
2022/07/11 00:14:24;;;;;;;8.10;2.65;;;16.20;99.90;;;;;;5018362;28;20405;-75
2022/07/11 00:16:52;;;;;;;13.17;2.70;;;16.20;99.90;;;;;;5020891;28;20056;-74
2022/07/11 00:19:19;;;;;;;11.65;2.72;;;16.20;99.90;;;;;;5019832;28;20073;-76
2022/07/11 00:21:46;;;;;;;12.93;2.70;;;16.20;99.90;;;;;;5037600;28;20041;-76
2022/07/11 00:24:12;;;;;;;8.57;3.00;;;16.20;99.90;;;;;;5018568;28;20365;-77
2022/07/11 00:26:38;;;;;;;9.40;3.20;;;16.00;99.90;;;;;;5017239;28;20060;-75
2022/07/11 00:29:07;;;;;;;10.10;2.83;;;16.00;99.90;;;;;;5018353;28;20132;-76
2022/07/11 00:31:32;;;;;;;14.27;2.90;;;16.00;99.90;;;;;;5036338;28;20157;-76
2022/07/11 00:33:58;;;;;;;12.13;3.00;;;16.00;99.90;;;;;;5035994;28;20452;-76
2022/07/11 00:36:24;;;;;;;13.07;3.10;;;16.00;99.90;;;;;;5034728;28;20059;-76
2022/07/11 00:38:50;;;;;;;9.23;2.67;;;16.00;99.90;;;;;;5018880;28;20049;-76
2022/07/11 00:41:17;;;;;;;14.48;2.63;;;16.00;99.90;;;;;;5034990;28;20108;-76
2022/07/11 00:43:43;;;;;;;12.90;2.95;;;15.80;99.90;;;;;;5018091;28;20079;-75
2022/07/11 00:46:10;;;;;;;9.87;2.30;;;15.80;99.90;;;;;;5035639;28;20049;-75
2022/07/11 00:48:36;;;;;;;12.35;2.55;;;15.70;99.90;;;;;;5017136;28;20280;-76
2022/07/11 00:51:03;;;;;;;9.63;2.45;;;15.60;99.90;;;;;;5035475;28;20501;-76
2022/07/11 00:53:30;;;;;;;11.52;2.40;;;15.50;99.90;;;;;;5035028;28;20093;-76
2022/07/11 00:55:57;;;;;;;;;;;15.40;99.90;;;;;;5017801;28;20076;-77
2022/07/11 00:58:23;;;;;;;;;;;15.40;99.90;;;;;;5017392;28;20238;-77
2022/07/11 01:00:49;;;;;;;8.30;1.83;;;15.30;99.90;;;;;;5000472;28;19939;-76
2022/07/11 01:03:15;;;;;;;9.00;2.33;;;15.30;99.90;;;;;;5000532;28;20046;-76
2022/07/11 01:05:41;;;;;;;9.97;2.00;;;15.30;99.90;;;;;;5016825;28;20072;-77
2022/07/11 01:08:07;;;;;;;10.50;2.50;;;15.30;99.90;;;;;;5000634;28;20287;-77
2022/07/11 01:10:33;;;;;;;9.52;2.65;;;15.40;99.90;;;;;;5000439;28;20124;-77
2022/07/11 01:12:59;;;;;;;11.60;3.13;;;15.30;99.90;;;;;;5016816;28;20053;-76
2022/07/11 01:15:25;;;;;;;18.05;3.67;;;15.40;99.90;;;;;;5034324;28;20049;-77
2022/07/11 01:17:54;;;;;;;14.35;4.35;;;15.40;99.90;;;;;;5034063;28;20053;-77
2022/07/11 01:20:22;;;;;;;15.40;4.32;;;15.40;99.90;;;;;;5034427;28;20092;-76
2022/07/11 01:22:52;;;;;;;15.88;4.63;;;15.40;99.90;;;;;;5015507;28;20076;-75
2022/07/11 01:25:31;;;;;;;14.30;4.18;;;15.50;99.90;;;;;;5033747;28;20491;-75
2022/07/11 01:28:08;;;;;;;19.73;5.50;;;15.50;99.90;;;;;;5018504;28;20060;-76
2022/07/11 01:30:34;;;;;;;16.88;4.88;;;15.40;99.90;;;;;;5016676;28;20073;-77
2022/07/11 01:33:00;;;;;;;14.63;4.37;;;15.50;99.90;;;;;;5033851;28;20056;-76
2022/07/11 01:35:28;;;;;;;19.87;4.67;;;15.50;99.90;;;;;;5000488;28;20375;-75
2022/07/11 01:37:54;;;;;;;15.27;4.88;;;15.50;99.90;;;;;;5016598;28;20060;-77
2022/07/11 01:40:20;;;;;;;15.50;4.63;;;15.50;99.90;;;;;;5033771;28;20369;-77
2022/07/11 01:42:46;;;;;;;12.48;4.68;;;15.50;99.90;;;;;;5033926;28;20080;-76
2022/07/11 01:45:12;;;;;;;16.13;4.97;;;15.50;99.90;;;;;;4999848;28;20045;-76
2022/07/11 01:47:39;;;;;;;16.80;4.85;;;15.60;99.90;;;;;;4999341;28;20508;-76
2022/07/11 01:50:05;;;;;;;11.60;3.92;;;15.60;99.90;;;;;;5033517;28;20084;-76
2022/07/11 01:52:31;;;;;;;12.55;4.45;;;15.50;99.90;;;;;;5033604;28;20046;-78
2022/07/11 01:54:57;;;;;;;19.50;4.95;;;15.60;99.90;;;;;;5033391;28;20171;-77
2022/07/11 01:57:23;;;;;;;14.38;4.78;;;15.60;99.90;;;;;;5033408;28;20056;-77
2022/07/11 01:59:48;;;;;;;14.07;4.28;;;15.60;99.90;;;;;;5033303;28;20045;-76
2022/07/11 02:02:15;;;;;;;14.82;4.60;;;15.60;99.90;;;;;;5000124;28;20053;-76
2022/07/11 02:04:41;;;;;;;22.15;5.57;;;15.60;99.90;;;;;;5033101;28;20493;-78
2022/07/11 02:07:06;;;;;;;15.57;4.82;;;15.50;99.90;;;;;;5033639;28;20128;-76
2022/07/11 02:09:32;;;;;;;22.63;5.50;;;15.50;99.90;;;;;;5032604;28;20109;-76
2022/07/11 02:11:58;;;;;;;17.40;4.85;;;15.50;99.90;;;;;;5016245;28;20187;-76
2022/07/11 02:14:23;;;;;;;16.65;4.75;;;15.50;99.90;;;;;;4999744;28;20069;-76
2022/07/11 02:16:49;;;;;;;17.75;5.05;;;15.50;99.90;;;;;;5036181;28;20041;-75
2022/07/11 02:19:15;;;;;;;16.63;4.60;;;15.50;99.90;;;;;;5000225;28;20049;-76
2022/07/11 02:21:41;;;;;;;20.27;5.07;;;15.50;99.90;;;;;;5001305;28;20433;-76
2022/07/11 02:24:08;;;;;;;15.57;5.37;;;15.50;99.90;;;;;;5035125;28;20414;-76
2022/07/11 02:26:34;;;;;;;14.05;4.68;;;15.40;99.90;;;;;;5034587;28;20396;-76
2022/07/11 02:29:00;;;;;;;17.90;5.20;;;15.50;99.90;;;;;;5034890;28;20107;-79
2022/07/11 02:31:26;;;;;;;16.50;4.75;;;15.40;99.90;;;;;;5033583;28;20128;-78
2022/07/11 02:33:52;;;;;;;23.55;4.95;;;15.40;99.90;;;;;;5016143;28;20047;-78
2022/07/11 02:36:17;;;;;;;17.90;4.35;;;15.50;99.90;;;;;;5033117;28;20110;-76
2022/07/11 02:38:43;;;;;;;14.30;4.88;;;15.50;99.90;;;;;;5015464;28;20079;-76
2022/07/11 02:41:09;;;;;;;15.10;4.97;;;15.50;99.90;;;;;;5033057;28;20394;-76
2022/07/11 02:43:34;;;;;;;16.20;4.85;;;15.50;99.90;;;;;;5033341;28;20041;-76
2022/07/11 02:46:01;;;;;;;17.70;5.07;;;15.40;99.90;;;;;;5032813;28;20045;-77
2022/07/11 02:48:26;;;;;;;22.48;4.30;;;15.50;99.90;;;;;;5031851;28;20056;-79
2022/07/11 02:50:52;;;;;;;16.58;4.60;;;15.40;99.90;;;;;;5031744;28;20424;-76
2022/07/11 02:53:18;;;;;;;16.42;4.72;;;15.40;99.90;;;;;;5032668;28;20056;-75
2022/07/11 02:55:43;;;;;;;20.88;5.15;;;15.30;99.90;;;;;;5033440;28;20088;-76
2022/07/11 02:58:09;;;;;;;19.05;4.93;;;15.20;99.90;;;;;;5015125;28;20049;-76
2022/07/11 03:00:35;;;;;;;16.17;4.93;;;15.20;99.90;;;;;;4999818;28;20456;-77
2022/07/11 03:03:01;;;;;;;20.38;4.72;;;15.20;99.90;;;;;;4999344;28;20049;-75
2022/07/11 03:05:27;;;;;;;22.98;5.28;;;15.20;99.90;;;;;;5033579;28;20162;-76
2022/07/11 03:07:53;;;;;;;22.95;4.88;;;15.20;99.90;;;;;;5014801;28;20188;-76
2022/07/11 03:10:19;;;;;;;18.00;4.95;;;15.20;99.90;;;;;;5019533;28;20052;-77
2022/07/11 03:12:45;;;;;;;23.48;5.22;;;15.20;99.90;;;;;;5015251;28;20056;-76
2022/07/11 03:15:11;;;;;;;15.73;4.70;;;15.30;99.90;;;;;;5031815;28;20147;-76
2022/07/11 03:17:37;;;;;;;18.03;4.43;;;15.30;99.90;;;;;;5015663;28;20663;-76
2022/07/11 03:20:04;;;;;;;20.23;4.77;;;15.30;99.90;;;;;;5014782;28;20077;-76
2022/07/11 03:22:30;;;;;;;14.80;4.50;;;15.30;99.90;;;;;;5014741;28;20041;-76
2022/07/11 03:24:56;;;;;;;13.38;4.57;;;15.40;99.90;;;;;;5033129;28;20037;-76
2022/07/11 03:27:21;;;;;;;18.17;4.35;;;15.40;99.90;;;;;;5015882;28;20058;-74
2022/07/11 03:29:47;;;;;;;15.55;4.30;;;15.40;99.90;;;;;;5032748;28;20060;-76
2022/07/11 03:32:13;;;;;;;13.80;4.07;;;15.40;99.90;;;;;;5015036;28;20132;-76
2022/07/11 03:34:39;;;;;;;13.00;3.90;;;15.40;99.90;;;;;;5015250;28;20052;-77
2022/07/11 03:37:05;;;;;;;18.33;3.97;;;15.40;99.90;;;;;;5015276;28;20050;-78
2022/07/11 03:39:31;;;;;;;14.70;3.75;;;15.40;99.90;;;;;;5014514;28;20057;-76
2022/07/11 03:41:57;;;;;;;13.65;4.03;;;15.40;99.90;;;;;;5033115;28;20046;-76
2022/07/11 03:44:23;;;;;;;12.65;3.88;;;15.30;99.90;;;;;;5032248;28;20516;-78
2022/07/11 03:46:49;;;;;;;13.40;3.78;;;15.30;99.90;;;;;;5016998;28;20053;-77
2022/07/11 03:49:15;;;;;;;14.50;4.40;;;15.30;99.90;;;;;;5036640;28;20378;-77
2022/07/11 03:51:42;;;;;;;16.60;4.20;;;15.30;99.90;;;;;;5019261;28;20049;-76
2022/07/11 03:54:07;;;;;;;15.63;3.93;;;15.30;99.90;;;;;;5002701;28;20456;-77
2022/07/11 03:56:33;;;;;;;16.23;3.90;;;15.30;99.90;;;;;;5035093;28;20100;-78
2022/07/11 03:58:59;;;;;;;18.88;4.43;;;15.30;99.90;;;;;;5036399;28;20082;-79
2022/07/11 04:01:24;;;;;;;14.32;4.07;;;15.30;99.90;;;;;;5018816;28;20045;-78
2022/07/11 04:03:50;;;;;;;18.15;4.22;;;15.30;99.90;;;;;;5018237;28;20481;-77
2022/07/11 04:06:16;;;;;;;14.70;4.22;;;15.20;99.90;;;;;;5018837;28;20049;-77
2022/07/11 04:08:42;;;;;;;11.95;4.35;;;15.20;99.90;;;;;;5001888;28;20157;-78
2022/07/11 04:11:08;;;;;;;19.30;4.17;;;15.20;99.90;;;;;;5002492;28;20060;-77
2022/07/11 04:13:34;;;;;;;15.48;4.35;;;15.20;99.90;;;;;;5018736;28;20466;-76
2022/07/11 04:15:59;;;;;;;10.95;3.83;;;15.20;99.90;;;;;;5018600;28;20053;-78
2022/07/11 04:18:25;;;;;;;14.30;4.03;;;15.30;99.90;;;;;;5017899;28;20045;-76
2022/07/11 04:20:51;;;;;;;12.10;4.25;;;15.30;99.90;;;;;;5017968;28;20085;-77
2022/07/11 04:23:17;;;;;;;13.30;3.67;;;15.30;99.90;;;;;;5017719;28;20060;-77
2022/07/11 04:25:43;;;;;;;13.93;4.10;;;15.40;99.90;;;;;;5035315;28;20055;-76
2022/07/11 04:28:09;;;;;;;14.18;4.22;;;15.40;99.90;;;;;;5035907;28;20113;-75
2022/07/11 04:30:35;;;;;;;13.07;4.00;;;15.40;99.90;;;;;;5033904;28;20474;-76
2022/07/11 04:33:01;;;;;;;14.53;3.87;;;15.40;99.90;;;;;;5017621;28;20053;-75
2022/07/11 04:35:27;;;;;;;11.73;3.95;;;15.40;99.90;;;;;;5017645;28;20052;-77
2022/07/11 04:37:54;;;;;;;13.65;3.80;;;15.40;99.90;;;;;;5018006;28;20057;-76
2022/07/11 04:40:23;;;;;;;15.50;3.70;;;15.40;99.90;;;;;;5035532;28;20128;-76
2022/07/11 04:42:52;;;;;;;14.77;3.95;;;15.40;99.90;;;;;;5001068;28;20056;-76
2022/07/11 04:45:18;;;;;;;14.75;4.43;;;15.40;99.90;;;;;;5017298;28;20045;-77
2022/07/11 04:47:44;;;;;;;12.60;4.13;;;15.50;99.90;;;;;;5017477;28;20535;-77
2022/07/11 04:50:10;;;;;;;14.90;3.72;;;15.50;99.90;;;;;;5034910;28;20120;-77
2022/07/11 04:52:37;;;;;;;11.80;3.53;;;15.50;99.90;;;;;;5017445;28;20041;-76
2022/07/11 04:55:03;;;;;;;10.32;3.30;;;15.60;99.90;;;;;;5017491;28;20064;-76
2022/07/11 04:57:29;;;;;;;8.10;3.07;;;15.60;99.90;;;;;;5034565;28;20041;-76
2022/07/11 04:59:55;;;;;;;11.50;3.00;;;15.50;99.90;;;;;;5000807;28;20434;-73
2022/07/11 05:02:20;;;;;;;15.63;2.83;;;15.50;99.90;;;;;;5034564;28;20053;-77
2022/07/11 05:04:46;;;;;;;7.28;2.78;;;15.60;99.90;;;;;;5017161;28;20061;-75
2022/07/11 05:07:15;;;;;;;9.52;2.33;;;15.60;99.90;;;;;;5016922;28;20091;-75
2022/07/11 05:09:40;;;;;;;7.07;2.90;;;15.70;99.90;;;;;;5017969;28;20050;-74
2022/07/11 05:12:08;;;;;;;9.05;2.45;;;15.70;99.90;;;;;;5035157;28;20396;-76
2022/07/11 05:14:33;;;;;;;7.10;2.60;;;15.80;99.90;;;;;;5035602;28;20069;-75
2022/07/11 05:16:59;;;;;;;10.18;2.25;;;15.80;99.90;;;;;;5020350;28;20355;-76
2022/07/11 05:19:25;;;;;;;8.00;2.25;;;15.90;99.90;;;;;;5020346;28;20136;-75
2022/07/11 05:21:51;;;;;;;7.22;2.53;;;15.90;99.90;;;;;;5020000;28;20057;-76
2022/07/11 05:24:18;;;;;;;10.32;1.90;;;16.10;99.90;;;;;;5035929;28;20041;-76
2022/07/11 05:26:44;;;;;;;6.45;2.00;;;16.20;99.90;;;;;;5013696;28;20066;-76
2022/07/11 05:29:10;;;;;;;6.80;1.65;;;16.20;99.90;;;;;;5013421;28;20144;-76
2022/07/11 05:31:37;;;;;;;8.90;1.73;;;16.20;99.90;;;;;;5015462;28;20046;-76
2022/07/11 05:34:03;;;;;;;5.85;1.77;;;16.30;99.90;;;;;;5013975;28;20077;-75
2022/07/11 05:36:28;;;;;;;7.70;1.38;;;16.30;99.90;;;;;;5013557;28;20042;-75
2022/07/11 05:38:54;;;;;;;5.53;1.17;;;16.40;99.90;;;;;;5016046;28;20049;-76
2022/07/11 05:41:20;;;;;;;4.83;1.37;;;16.50;99.90;;;;;;5016464;28;20469;-74
2022/07/11 05:43:46;;;;;;;5.05;1.73;;;16.40;99.90;;;;;;4998264;28;20085;-78
2022/07/11 05:46:12;;;;;;;5.93;1.27;;;16.30;99.90;;;;;;4997771;28;20045;-77
2022/07/11 05:48:37;;;;;;;4.72;1.35;;;16.20;99.90;;;;;;5017225;28;20139;-75
2022/07/11 05:51:07;;;;;;;5.95;1.02;;;16.40;99.90;;;;;;5015351;28;20045;-75
2022/07/11 05:53:32;;;;;;;4.88;1.00;;;16.50;99.90;;;;;;4998717;28;20561;-76
2022/07/11 05:55:59;;;;;;;4.93;1.27;;;16.50;99.90;;;;;;5016986;28;20120;-76
2022/07/11 05:58:25;;;;;;;4.10;1.10;;;16.60;99.90;;;;;;5017324;28;20056;-75
2022/07/11 06:00:50;;;;;;;4.57;0.90;;;16.50;99.90;;;;;;5017818;28;20476;-74
2022/07/11 06:03:16;;;;;;;2.97;0.60;;;16.70;99.90;;;;;;5015657;28;20081;-75
2022/07/11 06:05:42;;;;;;;2.80;0.57;;;16.80;99.90;;;;;;4999915;28;20132;-77
2022/07/11 06:10:52;;;;;;;6.18;0.75;;;16.60;99.90;;;;;;5015882;28;20042;-74
2022/07/11 06:13:17;;;;;;;2.60;0.50;;;16.80;99.90;;;;;;5015405;28;20081;-75
2022/07/11 06:15:44;;;;;;;3.03;0.55;;;16.70;99.90;;;;;;5015141;28;20065;-74
2022/07/11 06:18:10;;;;;;;2.33;0.50;;;16.70;99.90;;;;;;5014235;28;20057;-73
2022/07/11 06:20:36;;;;;;;2.55;0.50;;;16.70;99.90;;;;;;5014094;28;20540;-78
2022/07/11 06:23:01;;;;;;;3.05;0.45;;;16.70;99.90;;;;;;4998069;28;20053;-76
2022/07/11 06:25:27;;;;;;;2.58;0.40;;;16.80;99.90;;;;;;5015258;28;20088;-73
2022/07/11 06:27:53;;;;;;;2.27;0.30;;;16.80;99.90;;;;;;5016131;28;20089;-74
2022/07/11 06:30:19;;;;;;;1.45;0.35;;;17.00;99.90;;;;;;5018095;28;20052;-75
2022/07/11 06:32:44;;;;;;;1.00;0.30;;;17.20;99.90;;;;;;5017468;28;20048;-75
2022/07/11 06:35:10;;;;;;;3.20;0.43;;;17.40;99.90;;;;;;5017452;28;20407;-74
2022/07/11 06:37:36;;;;;;;1.30;0.30;;;17.60;99.90;;;;;;5016651;28;20060;-76
2022/07/11 06:40:02;;;;;;;2.70;0.63;;;17.60;99.90;;;;;;5017601;28;20037;-75
2022/07/11 06:42:27;;;;;;;5.45;0.40;;;17.40;99.90;;;;;;5037387;28;20524;-76
2022/07/11 06:44:54;;;;;;;1.40;0.30;;;17.20;99.90;;;;;;5019029;28;20049;-73
2022/07/11 06:47:20;;;;;;;;;;;17.30;99.90;;;;;;5036163;28;20426;-75
2022/07/11 06:49:45;;;;;;;2.03;0.67;;;17.20;99.90;;;;;;5016725;28;19987;-76
2022/07/11 06:52:11;;;;;;;2.60;0.30;;;17.20;99.90;;;;;;5017558;28;20136;-78
2022/07/11 06:54:37;;;;;;;4.10;0.40;;;17.20;99.90;;;;;;5017615;28;20131;-74
2022/07/11 06:57:03;;;;;;;1.17;0.35;;;17.50;99.90;;;;;;5034626;28;20508;-76
2022/07/11 06:59:29;;;;;;;1.65;0.30;;;17.50;99.90;;;;;;5017128;28;20494;-75
2022/07/11 07:01:54;;;;;;;1.33;0.30;;;17.60;99.90;;;;;;5017380;28;20140;-75
2022/07/11 07:04:20;;;;;;;1.27;0.47;;;17.50;99.90;;;;;;5036270;28;20064;-76
2022/07/11 07:06:46;;;;;;;1.83;0.30;;;17.40;99.90;;;;;;5016545;28;20057;-75
2022/07/11 07:09:13;;;;;;;2.05;0.20;;;17.80;99.90;;;;;;5015953;28;20102;-75
2022/07/11 07:11:39;;;;;;;1.10;0.30;;;17.70;99.90;;;;;;5016103;28;20061;-75
2022/07/11 07:14:04;;;;;;;1.15;0.28;;;17.80;99.90;;;;;;5032128;28;20052;-76
2022/07/11 07:16:30;;;;;;;3.40;0.30;;;18.00;99.90;;;;;;5033488;28;20194;-77
2022/07/11 07:18:56;;;;;;;2.70;0.38;;;17.90;99.90;;;;;;5032460;28;20052;-75
2022/07/11 07:21:21;;;;;;;1.67;0.40;;;18.10;99.90;;;;;;5033373;28;20053;-77
2022/07/11 07:23:47;;;;;;;1.58;0.30;;;18.10;99.90;;;;;;5016647;28;20064;-74
2022/07/11 07:26:13;;;;;;;3.33;0.30;;;18.00;99.90;;;;;;5033644;28;20058;-79
2022/07/11 07:28:39;;;;;;;2.27;0.20;;;17.80;99.90;;;;;;5032481;28;20464;-75
2022/07/11 07:31:06;;;;;;;1.50;0.20;;;17.80;99.90;;;;;;5032452;28;20057;-77
2022/07/11 07:33:32;;;;;;;1.20;0.30;;;17.90;99.90;;;;;;5033024;28;20083;-76
2022/07/11 07:35:57;;;;;;;1.50;0.27;;;17.80;99.90;;;;;;5015875;28;20129;-77
2022/07/11 07:38:23;;;;;;;1.07;0.30;;;17.70;99.90;;;;;;5033581;28;20056;-75
2022/07/11 07:40:49;;;;;;;2.97;0.30;;;17.90;99.90;;;;;;5033356;28;20482;-75
2022/07/11 07:43:14;;;;;;;2.73;0.40;;;17.90;99.90;;;;;;4999112;28;20053;-77
2022/07/11 07:45:40;;;;;;;2.30;0.38;;;17.70;99.90;;;;;;5015894;28;20050;-77
2022/07/11 07:48:06;;;;;;;3.47;0.30;;;17.40;99.90;;;;;;5032347;28;20121;-76
2022/07/11 07:50:32;;;;;;;3.40;0.30;;;17.60;99.90;;;;;;5015647;28;20060;-76
2022/07/11 07:52:58;;;;;;;1.98;0.40;;;17.80;99.90;;;;;;5032184;28;20429;-75
2022/07/11 07:55:24;;;;;;;1.63;0.30;;;17.80;99.90;;;;;;5016630;28;20045;-76
2022/07/11 07:57:49;;;;;;;3.20;0.37;;;17.60;99.90;;;;;;5033204;28;20080;-77
2022/07/11 08:03:08;;;;;;;2.33;0.30;;;17.80;99.90;;;;;;5028541;28;20053;-75
2022/07/11 08:05:33;;;;;;;2.17;0.40;;;18.00;99.90;;;;;;5036617;28;20130;-74
2022/07/11 08:07:59;;;;;;;1.00;0.30;;;17.80;99.90;;;;;;5003849;28;20490;-75
2022/07/11 08:10:26;;;;;;;2.57;0.30;;;18.10;99.90;;;;;;5020354;28;20488;-75
2022/07/11 08:12:51;;;;;;;2.83;0.40;;;18.50;99.90;;;;;;5040573;28;20409;-74
2022/07/11 08:15:17;;;;;;;3.90;0.30;;;18.60;99.90;;;;;;5024327;28;20041;-76
2022/07/11 08:17:43;;;;;;;1.20;0.30;;;18.70;99.90;;;;;;5008917;28;20041;-76
2022/07/11 08:20:09;;;;;;;5.27;0.40;;;18.80;99.90;;;;;;5007813;28;20064;-75
2022/07/11 08:22:35;;;;;;;2.22;0.30;;;19.10;99.90;;;;;;5043101;28;20051;-74
2022/07/11 08:25:00;;;;;;;5.97;0.43;;;19.10;99.90;;;;;;5043587;28;20163;-76
2022/07/11 08:27:27;;;;;;;1.40;0.30;;;19.10;99.90;;;;;;5039456;28;20064;-74
2022/07/11 08:29:52;;;;;;;1.63;0.20;;;19.20;99.90;;;;;;5036249;28;20049;-77
2022/07/11 08:32:18;;;;;;;0.73;0.20;;;19.50;99.90;;;;;;5019984;28;20072;-77
2022/07/11 08:34:46;;;;;;;4.37;0.30;;;19.40;99.90;;;;;;5039955;28;20049;-75
2022/07/11 08:37:12;;;;;;;3.63;0.20;;;19.40;99.90;;;;;;5019015;28;20045;-76
2022/07/11 08:39:38;;;;;;;2.43;0.10;;;19.40;99.90;;;;;;5020014;28;20072;-73
2022/07/11 08:42:04;;;;;;;1.10;0.10;;;19.30;99.90;;;;;;5020061;28;20099;-76
2022/07/11 08:44:30;;;;;;;0.83;0.10;;;19.30;99.90;;;;;;5036987;28;20128;-77
2022/07/11 08:46:57;;;;;;;39.45;3.53;;;19.40;99.90;;;;;;5019407;28;20042;-77
2022/07/11 08:49:23;;;;;;;1.02;0.13;;;19.60;99.90;;;;;;5036855;28;20208;-76
2022/07/11 08:51:49;;;;;;;0.80;0.20;;;19.50;99.90;;;;;;5019167;28;20104;-76
2022/07/11 08:54:14;;;;;;;2.50;0.30;;;19.70;99.90;;;;;;5003453;28;20370;-76
2022/07/11 08:56:45;;;;;;;2.03;0.20;;;20.00;99.90;;;;;;5036823;28;20088;-76
2022/07/11 08:59:17;;;;;;;2.30;0.13;;;20.10;99.90;;;;;;5037668;28;20064;-77
2022/07/11 09:01:45;;;;;;;2.55;0.40;;;20.20;99.90;;;;;;5037484;28;20132;-78
2022/07/11 09:04:13;;;;;;;2.15;0.22;;;19.90;99.90;;;;;;5037511;28;20045;-77
2022/07/11 09:06:40;;;;;;;1.50;0.20;;;19.70;99.90;;;;;;5037873;28;20071;-77
2022/07/11 09:09:06;;;;;;;1.52;0.40;;;19.60;99.90;;;;;;5003204;28;20049;-77
2022/07/11 09:11:57;;;;;;;1.00;0.20;;;19.10;99.90;;;;;;5020065;28;20104;-77
2022/07/11 09:14:25;;;;;;;2.00;0.20;;;19.20;99.90;;;;;;5038242;28;20048;-77
2022/07/11 09:16:56;;;;;;;0.88;0.20;;;19.10;99.90;;;;;;5018452;28;20061;-77
2022/07/11 09:19:24;;;;;;;2.25;0.20;;;19.10;99.90;;;;;;5018882;28;20060;-76
2022/07/11 09:27:49;;;;;;;1.15;0.20;;;19.10;99.90;;;;;;5038672;28;20478;-76
2022/07/11 09:30:44;;;;;;;1.55;0.30;;;19.60;99.90;;;;;;5036635;28;20042;-78
2022/07/11 09:33:12;;;;;;;2.72;0.20;;;19.90;99.90;;;;;;5038383;28;20045;-76
2022/07/11 09:35:45;;;;;;;0.93;0.15;;;20.20;99.90;;;;;;5036065;28;20057;-75
2022/07/11 09:38:12;;;;;;;1.13;0.28;;;19.50;99.90;;;;;;5019359;28;20584;-78
2022/07/11 09:40:42;;;;;;;1.17;0.20;;;19.80;99.90;;;;;;5019492;28;20037;-79
2022/07/11 09:43:08;;;;;;;1.48;0.30;;;19.80;99.90;;;;;;5040277;28;20401;-76
2022/07/11 09:45:35;;;;;;;1.10;0.30;;;19.80;99.90;;;;;;5004320;28;20083;-76
2022/07/11 09:48:11;;;;;;;1.95;0.20;;;20.20;99.90;;;;;;5005063;28;20049;-78
2022/07/11 09:50:39;;;;;;;1.50;0.30;;;20.20;99.90;;;;;;5025106;28;20452;-76
2022/07/11 09:53:14;;;;;;;2.92;0.40;;;20.10;99.90;;;;;;5042274;28;20083;-79
2022/07/11 09:55:44;;;;;;;1.65;0.20;;;20.20;99.90;;;;;;5005419;28;20089;-75
2022/07/11 09:58:11;;;;;;;4.68;0.20;;;20.20;99.90;;;;;;5038860;28;20466;-78
2022/07/11 10:00:38;;;;;;;3.25;0.20;;;20.00;99.90;;;;;;5020159;28;20390;-78
2022/07/11 10:03:09;;;;;;;0.57;0.20;;;20.00;99.90;;;;;;5039373;28;20045;-79
2022/07/11 10:05:35;;;;;;;2.65;0.20;;;20.10;99.90;;;;;;5021746;28;20469;-75
2022/07/11 10:08:01;;;;;;;1.00;0.20;;;20.10;99.90;;;;;;5040380;28;20056;-76
2022/07/11 10:10:29;;;;;;;1.30;0.30;;;20.00;99.90;;;;;;5039690;28;20057;-77
2022/07/11 10:12:56;;;;;;;1.85;0.20;;;20.30;99.90;;;;;;5038784;28;20425;-78
2022/07/11 10:15:37;;;;;;;1.50;0.30;;;20.30;99.90;;;;;;5004828;28;20037;-77
2022/07/11 10:18:03;;;;;;;1.15;0.30;;;20.30;99.90;;;;;;5003611;28;20378;-80
2022/07/11 10:20:48;;;;;;;1.60;0.40;;;20.30;99.90;;;;;;5035238;28;20046;-77
2022/07/11 10:23:39;;;;;;;1.67;0.30;;;20.40;99.90;;;;;;5018351;28;20053;-76
2022/07/11 10:26:08;;;;;;;1.67;0.38;;;20.20;99.90;;;;;;5001679;28;20056;-77
2022/07/11 10:28:42;;;;;;;1.80;0.50;;;20.30;99.90;;;;;;5034557;28;20053;-76
2022/07/11 10:31:22;;;;;;;2.08;0.32;;;20.30;99.90;;;;;;5035766;28;20038;-78
2022/07/11 10:34:10;;;;;;;1.38;0.47;;;20.40;99.90;;;;;;5041043;28;20037;-77
2022/07/11 10:36:43;;;;;;;1.63;0.28;;;20.50;99.90;;;;;;5026279;28;20045;-78
2022/07/11 10:39:27;;;;;;;0.85;0.30;;;21.00;99.90;;;;;;5009376;28;20053;-78
2022/07/11 10:41:57;;;;;;;1.67;0.32;;;21.00;99.90;;;;;;5024241;28;20056;-80
2022/07/11 10:44:25;;;;;;;1.13;0.20;;;21.30;99.90;;;;;;5026372;28;20129;-76
2022/07/11 10:46:52;;;;;;;0.35;0.17;;;21.70;99.90;;;;;;5042283;28;20052;-79
2022/07/11 10:49:40;;;;;;;0.50;0.20;;;21.50;99.90;;;;;;5040305;28;20049;-77
2022/07/11 10:52:07;;;;;;;0.68;0.20;;;21.70;99.90;;;;;;5039943;28;20492;-78
2022/07/11 10:54:42;;;;;;;2.40;0.30;;;21.90;99.90;;;;;;5023697;28;20473;-76
2022/07/11 10:57:27;;;;;;;1.30;0.10;;;22.10;99.90;;;;;;5023727;28;20084;-80
2022/07/11 11:00:09;;;;;;;2.33;0.30;;;21.90;99.90;;;;;;5039667;28;20183;-79
2022/07/11 11:02:54;;;;;;;2.58;0.30;;;21.90;99.90;;;;;;5022560;28;20054;-78
2022/07/11 11:05:42;;;;;;;1.10;0.22;;;21.50;99.90;;;;;;5040780;28;20101;-78
2022/07/11 11:08:37;;;;;;;3.58;0.30;;;21.50;99.90;;;;;;5024836;28;20055;-79
2022/07/11 11:11:06;;;;;;;1.08;0.30;;;21.30;99.90;;;;;;5044960;28;20125;-77
2022/07/11 11:13:35;;;;;;;1.73;0.20;;;21.00;99.90;;;;;;5044833;28;20064;-77
2022/07/11 11:16:02;;;;;;;1.38;0.30;;;21.20;99.90;;;;;;5028240;28;20151;-80
2022/07/11 11:18:34;;;;;;;1.38;0.30;;;20.90;99.90;;;;;;4991606;28;20049;-77
2022/07/11 11:21:18;;;;;;;1.13;0.32;;;21.20;99.90;;;;;;5041396;28;20088;-78
2022/07/11 11:24:01;;;;;;;1.83;0.25;;;21.40;99.90;;;;;;5023467;28;20048;-79
2022/07/11 11:26:46;;;;;;;7.40;0.63;;;21.40;99.90;;;;;;5040487;28;20108;-78
2022/07/11 11:29:21;;;;;;;1.40;0.40;;;21.50;99.90;;;;;;5040965;28;20103;-80
2022/07/11 11:31:56;;;;;;;1.10;0.22;;;21.40;99.90;;;;;;5042853;28;20046;-77
2022/07/11 11:34:22;;;;;;;2.10;0.50;;;21.00;99.90;;;;;;5022381;28;20072;-76
2022/07/11 11:36:56;;;;;;;1.05;0.40;;;21.30;99.90;;;;;;5041323;28;20046;-76
2022/07/11 11:39:33;;;;;;;2.42;0.40;;;21.20;99.90;;;;;;5040542;28;20049;-80
2022/07/11 11:42:08;;;;;;;2.10;0.30;;;21.00;99.90;;;;;;5020295;28;20047;-78
2022/07/11 11:44:34;;;;;;;1.40;0.40;;;21.10;99.90;;;;;;5019860;28;20057;-78
2022/07/11 11:47:00;;;;;;;0.85;0.40;;;21.20;99.90;;;;;;5003498;28;20116;-77
2022/07/11 11:49:26;;;;;;;1.23;0.30;;;21.00;99.90;;;;;;5020241;28;20061;-76
2022/07/11 11:51:56;;;;;;;2.00;0.30;;;21.20;99.90;;;;;;5019332;28;20571;-77
2022/07/11 11:54:25;;;;;;;1.20;0.30;;;21.30;99.90;;;;;;5036183;28;20121;-76
2022/07/11 11:56:55;;;;;;;2.75;0.60;;;21.60;99.90;;;;;;5036647;28;20049;-77
2022/07/11 11:59:28;;;;;;;;;;;21.20;99.90;;;;;;5002948;28;20087;-80
2022/07/11 12:01:53;;;;;;;0.73;0.30;;;21.50;99.90;;;;;;5019908;28;19921;-79
2022/07/11 12:04:19;;;;;;;0.73;0.30;;;21.50;99.90;;;;;;5036696;28;20461;-78
2022/07/11 12:06:49;;;;;;;1.53;0.33;;;21.50;99.90;;;;;;5040854;28;20044;-77
2022/07/11 12:09:16;;;;;;;1.35;0.30;;;21.80;99.90;;;;;;5044105;28;20045;-77
2022/07/11 12:11:42;;;;;;;;;;;21.90;99.90;;;;;;5045646;28;20076;-77
2022/07/11 12:14:11;;;;;;;0.63;0.30;;;22.10;99.90;;;;;;5027193;28;19920;-78
2022/07/11 12:16:46;;;;;;;1.63;0.30;;;22.40;99.90;;;;;;5042158;28;20386;-74
2022/07/11 12:19:18;;;;;;;2.25;0.40;;;22.30;99.90;;;;;;5024902;28;20115;-76
2022/07/11 12:21:46;;;;;;;1.77;0.30;;;22.10;99.90;;;;;;5028519;28;20132;-79
2022/07/11 12:24:17;;;;;;;1.10;0.30;;;21.70;99.90;;;;;;5027809;28;20061;-78
2022/07/11 12:26:43;;;;;;;0.75;0.30;;;22.10;99.90;;;;;;5014217;28;20490;-78
2022/07/11 12:29:16;;;;;;;3.33;0.30;;;22.30;99.90;;;;;;5042095;28;20053;-79
2022/07/11 12:31:55;;;;;;;1.95;0.30;;;22.40;99.90;;;;;;5024342;28;20045;-77
2022/07/11 12:34:22;;;;;;;0.95;0.30;;;22.60;99.90;;;;;;5024453;28;20053;-76
2022/07/11 12:36:49;;;;;;;1.48;0.40;;;22.60;99.90;;;;;;5042500;28;20104;-76
2022/07/11 12:39:26;;;;;;;1.95;0.30;;;22.40;99.90;;;;;;5026961;28;20053;-76
2022/07/11 12:41:53;;;;;;;1.13;0.30;;;22.30;99.90;;;;;;5043628;28;20038;-79
2022/07/11 12:47:13;;;;;;;0.60;0.20;;;22.30;99.90;;;;;;5025498;28;20045;-76
2022/07/11 12:49:46;;;;;;;0.70;0.28;;;22.40;99.90;;;;;;5008355;28;20110;-77
2022/07/11 12:52:13;;;;;;;1.70;0.30;;;22.70;99.90;;;;;;5024210;28;20049;-78
2022/07/11 12:54:39;;;;;;;2.15;0.30;;;22.90;99.90;;;;;;5043437;28;20086;-77
2022/07/11 12:57:07;;;;;;;1.75;0.30;;;23.30;99.90;;;;;;5025607;28;20043;-77
2022/07/11 12:59:33;;;;;;;3.20;0.40;;;23.30;99.90;;;;;;5026426;28;20053;-77
2022/07/11 13:02:05;;;;;;;1.85;0.40;;;23.10;99.90;;;;;;5042818;28;20037;-77
2022/07/11 13:04:36;;;;;;;0.98;0.30;;;22.90;99.90;;;;;;5043115;28;20049;-79